Aérodrome :
LOGIN :

S'inscrire | Disclaimer

   EN    FR    IT 

 










Légende :    VFR   VFR Marginal   IFR   IFR Intensif   IFR Très Intensif
Visi : 
Plafond : 
>= 8 km
>= 3000ft
5 à 8 km
1000 à 3000 ft
1500m à 5 km
500 à 1000 ft
800 à 1500m
200 à 500 ft
< 800m
< 200 ft
Symboles :   Orages  Brouillard  Fortes neiges  Fortes précipitations  Vent > 20 kt
SIGMETs :   Divers  Orages  Givrage  Turbulence  Onde Orograph.  Cendres Volcan.







- Altitude de l'aérodrome : 236 ft
- Code IATA : MMX


ESMS - Malmö Sturup

DERNIER METAR :
  • 210250Z 24011KT 9999 -RA SCT013 17/15 Q1008

METARs EXPIRÉS :
  • 210220Z 24010KT 9999 SCT014 17/15 Q1009
  • 210150Z 25011KT 9999 FEW014 BKN038 17/15 Q1009
  • 210120Z 24012KT 9999 FEW013 17/15 Q1010
  • 210050Z 24012KT 9999 FEW013 SCT018 17/15 Q1010
  • 210020Z 25012KT 9999 SCT015 BKN100 17/15 Q1010

TAF TAF ESMS
Valide du 21 à 00h jusqu'au 22 à 00h UTC


202310Z 2100/2124 24012KT 9999 BKN025
TEMPO 2102/2107 -RA BKN012
BECMG 2108/2111 29013KT
TEMPO 2111/2121 29015G28KT
Pas de NOTAMs connus pour ce terrain.



MET'MAP, la Météo Aéronautique d'un coup d'oeil ! - Copyright ORBIFLY Décembre 2007 - Disclaimer

ORBIFLY MET'MAP TEAM :

Programmation & Développement : Alexandra Zaïnal
Conception & Développement : Baudouin d'Aumeries
Co-Programmation & Développement : Marc-Olivier Méhu
Soutien technique & logistique : Manuel Goepfert

Contact : metmap@orbifly.com




SOURCES & CREDITS :

   NOAA